BEE1935 EGLC-EHAM
Flight info
| Callsign | BEE1935 |
|---|---|
| Flight time | 0h 39m |
| Altitude | 19000 |
| Route | ODUKU M84 CLN P44 RATLO M197 REDFA |
| Aircraft | DH8D/M-SDE2E3FGRY/H |
Departure
| Time | 2026-05-04 19:34 |
|---|---|
| Airport | London City Airport (EGLC) |
Arrival
| Time | 2026-05-04 20:14 |
|---|---|
| Airport | Amsterdam Airport Schiphol (EHAM) |
| Time | Latitude | Longitude | Altitude | Speed | Heading |
|---|---|---|---|---|---|
| 2026-05-04 18:29 | 51.50445 | 0.04507 | 26 ft | 0 kts | 319° |
| 2026-05-04 19:24 | 51.50455 | 0.04495 | 26 ft | 1 kts | 323° |
| 2026-05-04 19:24 | 51.50457 | 0.04493 | 26 ft | 0 kts | 323° |
| 2026-05-04 19:30 | 51.50468 | 0.04480 | 27 ft | 0 kts | 326° |
| 2026-05-04 19:30 | 51.50473 | 0.04475 | 27 ft | 0 kts | 327° |
| 2026-05-04 19:30 | 51.50477 | 0.04471 | 27 ft | 4 kts | 327° |
| 2026-05-04 19:31 | 51.50489 | 0.04459 | 27 ft | 0 kts | 329° |
| 2026-05-04 19:32 | 51.50490 | 0.04458 | 27 ft | 0 kts | 329° |
| 2026-05-04 19:32 | 51.50497 | 0.04453 | 27 ft | 1 kts | 337° |
| 2026-05-04 19:33 | 51.50513 | 0.04443 | 27 ft | 3 kts | 345° |
| 2026-05-04 19:33 | 51.50535 | 0.04447 | 27 ft | 3 kts | 18° |
| 2026-05-04 19:33 | 51.50554 | 0.04472 | 27 ft | 3 kts | 75° |
| 2026-05-04 19:33 | 51.50554 | 0.04497 | 27 ft | 0 kts | 89° |
| 2026-05-04 19:34 | 51.50539 | 0.05027 | 27 ft | 101 kts | 94° |
| 2026-05-04 19:34 | 51.50488 | 0.06523 | 197 ft | 152 kts | 93° |
| 2026-05-04 19:34 | 51.50357 | 0.08293 | 898 ft | 171 kts | 99° |
| 2026-05-04 19:34 | 51.50133 | 0.10219 | 1714 ft | 181 kts | 94° |
| 2026-05-04 19:35 | 51.50323 | 0.12154 | 2437 ft | 187 kts | 58° |
| 2026-05-04 19:35 | 51.51347 | 0.13461 | 3077 ft | 195 kts | 26° |
| 2026-05-04 19:35 | 51.52609 | 0.14410 | 3707 ft | 210 kts | 26° |
| 2026-05-04 19:35 | 51.53971 | 0.15447 | 3950 ft | 218 kts | 25° |
| 2026-05-04 19:36 | 51.55298 | 0.16647 | 4030 ft | 223 kts | 40° |
| 2026-05-04 19:36 | 51.56167 | 0.18703 | 4168 ft | 224 kts | 62° |
| 2026-05-04 19:36 | 51.56836 | 0.20918 | 4506 ft | 224 kts | 63° |
| 2026-05-04 19:36 | 51.57511 | 0.23170 | 5205 ft | 221 kts | 63° |
| 2026-05-04 19:37 | 51.58189 | 0.25437 | 5764 ft | 227 kts | 63° |
| 2026-05-04 19:37 | 51.58899 | 0.27797 | 5998 ft | 246 kts | 63° |
| 2026-05-04 19:37 | 51.59634 | 0.30236 | 6726 ft | 238 kts | 63° |
| 2026-05-04 19:37 | 51.60348 | 0.32603 | 7452 ft | 235 kts | 63° |
| 2026-05-04 19:38 | 51.61048 | 0.34929 | 8128 ft | 234 kts | 63° |
| 2026-05-04 19:38 | 51.61766 | 0.37304 | 8656 ft | 236 kts | 63° |
| 2026-05-04 19:38 | 51.62480 | 0.39672 | 9166 ft | 239 kts | 63° |
| 2026-05-04 19:38 | 51.63210 | 0.42119 | 9687 ft | 243 kts | 63° |
| 2026-05-04 19:39 | 51.63939 | 0.44585 | 10197 ft | 246 kts | 63° |
| 2026-05-04 19:39 | 51.64670 | 0.47047 | 10720 ft | 248 kts | 63° |
| 2026-05-04 19:39 | 51.65442 | 0.49635 | 10922 ft | 263 kts | 63° |
| 2026-05-04 19:39 | 51.66262 | 0.52374 | 11006 ft | 281 kts | 63° |
| 2026-05-04 19:40 | 51.67133 | 0.55279 | 11009 ft | 295 kts | 63° |
| 2026-05-04 19:40 | 51.68043 | 0.58316 | 11019 ft | 307 kts | 63° |
| 2026-05-04 19:40 | 51.68992 | 0.61484 | 11146 ft | 312 kts | 63° |
| 2026-05-04 19:40 | 51.69901 | 0.64518 | 12126 ft | 285 kts | 63° |
| 2026-05-04 19:41 | 51.70640 | 0.66991 | 13977 ft | 227 kts | 63° |
| 2026-05-04 19:41 | 51.71306 | 0.69224 | 14502 ft | 231 kts | 64° |
| 2026-05-04 19:41 | 51.72022 | 0.71623 | 14875 ft | 237 kts | 64° |
| 2026-05-04 19:41 | 51.72739 | 0.74026 | 15311 ft | 241 kts | 64° |
| 2026-05-04 19:42 | 51.73460 | 0.76440 | 15777 ft | 243 kts | 65° |
| 2026-05-04 19:42 | 51.74201 | 0.78925 | 16240 ft | 245 kts | 65° |
| 2026-05-04 19:42 | 51.74939 | 0.81401 | 16695 ft | 246 kts | 65° |
| 2026-05-04 19:42 | 51.75673 | 0.83867 | 17107 ft | 248 kts | 65° |
| 2026-05-04 19:43 | 51.76426 | 0.86398 | 17541 ft | 250 kts | 65° |
| 2026-05-04 19:43 | 51.77172 | 0.88909 | 17954 ft | 251 kts | 66° |
| 2026-05-04 19:43 | 51.77936 | 0.91484 | 18320 ft | 255 kts | 66° |
| 2026-05-04 19:43 | 51.78703 | 0.94069 | 18711 ft | 256 kts | 66° |
| 2026-05-04 19:44 | 51.79478 | 0.96687 | 18933 ft | 265 kts | 65° |
| 2026-05-04 19:44 | 51.80296 | 0.99454 | 19010 ft | 280 kts | 65° |
| 2026-05-04 19:44 | 51.81154 | 1.02361 | 19028 ft | 294 kts | 65° |
| 2026-05-04 19:44 | 51.82051 | 1.05399 | 19033 ft | 306 kts | 65° |
| 2026-05-04 19:45 | 51.82988 | 1.08575 | 19035 ft | 316 kts | 65° |
| 2026-05-04 19:45 | 51.83944 | 1.11821 | 19032 ft | 323 kts | 65° |
| 2026-05-04 19:45 | 51.84890 | 1.15165 | 19023 ft | 329 kts | 69° |
| 2026-05-04 19:45 | 51.85648 | 1.18642 | 19032 ft | 332 kts | 72° |
| 2026-05-04 19:46 | 51.86373 | 1.22210 | 19031 ft | 336 kts | 72° |
| 2026-05-04 19:46 | 51.87100 | 1.25800 | 19025 ft | 339 kts | 72° |
| 2026-05-04 19:46 | 51.87836 | 1.29437 | 19028 ft | 341 kts | 72° |
| 2026-05-04 19:46 | 51.88582 | 1.33119 | 19028 ft | 343 kts | 72° |
| 2026-05-04 19:47 | 51.89315 | 1.36741 | 19027 ft | 344 kts | 72° |
| 2026-05-04 19:47 | 51.90065 | 1.40445 | 19020 ft | 346 kts | 72° |
| 2026-05-04 19:47 | 51.90810 | 1.44132 | 19028 ft | 347 kts | 72° |
| 2026-05-04 19:47 | 51.91565 | 1.47867 | 19027 ft | 347 kts | 72° |
| 2026-05-04 19:48 | 51.92308 | 1.51554 | 19029 ft | 348 kts | 72° |
| 2026-05-04 19:48 | 51.93066 | 1.55320 | 19029 ft | 348 kts | 72° |
| 2026-05-04 19:48 | 51.93806 | 1.59000 | 19028 ft | 348 kts | 72° |
| 2026-05-04 19:48 | 51.94555 | 1.62734 | 19027 ft | 348 kts | 72° |
| 2026-05-04 19:49 | 51.95307 | 1.66493 | 19026 ft | 348 kts | 73° |
| 2026-05-04 19:49 | 51.96059 | 1.70252 | 19023 ft | 348 kts | 73° |
| 2026-05-04 19:49 | 51.96794 | 1.73934 | 19026 ft | 348 kts | 72° |
| 2026-05-04 19:49 | 51.97543 | 1.77694 | 19029 ft | 348 kts | 72° |
| 2026-05-04 19:50 | 51.98283 | 1.81418 | 19030 ft | 348 kts | 72° |
| 2026-05-04 19:50 | 51.99017 | 1.85116 | 19028 ft | 348 kts | 72° |
| 2026-05-04 19:50 | 51.99756 | 1.88851 | 19027 ft | 349 kts | 73° |
| 2026-05-04 19:50 | 52.00491 | 1.92571 | 19029 ft | 349 kts | 73° |
| 2026-05-04 19:51 | 52.01232 | 1.96329 | 19030 ft | 349 kts | 73° |
| 2026-05-04 19:51 | 52.01976 | 2.00105 | 19026 ft | 349 kts | 72° |
| 2026-05-04 19:51 | 52.02664 | 2.03847 | 19013 ft | 349 kts | 77° |
| 2026-05-04 19:51 | 52.03052 | 2.07729 | 19021 ft | 348 kts | 83° |
| 2026-05-04 19:52 | 52.03356 | 2.11610 | 19013 ft | 349 kts | 83° |
| 2026-05-04 19:52 | 52.03659 | 2.15495 | 19010 ft | 348 kts | 83° |
| 2026-05-04 19:52 | 52.03965 | 2.19388 | 19009 ft | 348 kts | 83° |
| 2026-05-04 19:52 | 52.04272 | 2.23266 | 19008 ft | 348 kts | 83° |
| 2026-05-04 19:53 | 52.04581 | 2.27156 | 19009 ft | 348 kts | 83° |
| 2026-05-04 19:53 | 52.04891 | 2.31063 | 19006 ft | 348 kts | 83° |
| 2026-05-04 19:53 | 52.05199 | 2.34931 | 19010 ft | 348 kts | 83° |
| 2026-05-04 19:53 | 52.05507 | 2.38815 | 19008 ft | 348 kts | 83° |
| 2026-05-04 19:54 | 52.05817 | 2.42717 | 19008 ft | 348 kts | 83° |
| 2026-05-04 19:54 | 52.06123 | 2.46597 | 19011 ft | 348 kts | 83° |
| 2026-05-04 19:54 | 52.06431 | 2.50497 | 19009 ft | 348 kts | 83° |
| 2026-05-04 19:54 | 52.06736 | 2.54385 | 19011 ft | 348 kts | 83° |
| 2026-05-04 19:55 | 52.07041 | 2.58281 | 19008 ft | 348 kts | 83° |
| 2026-05-04 19:55 | 52.07346 | 2.62190 | 19011 ft | 348 kts | 83° |
| 2026-05-04 19:55 | 52.07649 | 2.66083 | 19007 ft | 348 kts | 83° |
| 2026-05-04 19:55 | 52.07954 | 2.70032 | 19009 ft | 348 kts | 83° |
| 2026-05-04 19:56 | 52.08256 | 2.73941 | 19011 ft | 348 kts | 83° |
| 2026-05-04 19:56 | 52.08555 | 2.77837 | 19013 ft | 348 kts | 83° |
| 2026-05-04 19:56 | 52.08850 | 2.81699 | 19010 ft | 348 kts | 83° |
| 2026-05-04 19:56 | 52.09145 | 2.85585 | 19009 ft | 348 kts | 83° |
| 2026-05-04 19:57 | 52.09441 | 2.89495 | 19012 ft | 348 kts | 83° |
| 2026-05-04 19:57 | 52.09734 | 2.93378 | 19011 ft | 348 kts | 84° |
| 2026-05-04 19:57 | 52.10027 | 2.97285 | 19010 ft | 348 kts | 83° |
| 2026-05-04 19:57 | 52.10318 | 3.01184 | 19008 ft | 348 kts | 83° |
| 2026-05-04 19:58 | 52.10608 | 3.05084 | 19010 ft | 347 kts | 83° |
| 2026-05-04 19:58 | 52.10894 | 3.08954 | 19008 ft | 347 kts | 84° |
| 2026-05-04 19:58 | 52.11183 | 3.12880 | 19001 ft | 347 kts | 84° |
| 2026-05-04 19:58 | 52.11469 | 3.16769 | 19006 ft | 347 kts | 84° |
| 2026-05-04 19:59 | 52.11752 | 3.20646 | 19004 ft | 347 kts | 84° |
| 2026-05-04 19:59 | 52.12035 | 3.24550 | 18998 ft | 347 kts | 84° |
| 2026-05-04 19:59 | 52.12316 | 3.28429 | 19013 ft | 347 kts | 84° |
| 2026-05-04 19:59 | 52.12593 | 3.32278 | 18636 ft | 346 kts | 84° |
| 2026-05-04 20:00 | 52.12874 | 3.36124 | 17967 ft | 336 kts | 83° |
| 2026-05-04 20:00 | 52.13142 | 3.39789 | 17448 ft | 323 kts | 83° |
| 2026-05-04 20:00 | 52.13401 | 3.43364 | 16982 ft | 310 kts | 83° |
| 2026-05-04 20:00 | 52.13646 | 3.46767 | 16542 ft | 299 kts | 83° |
| 2026-05-04 20:01 | 52.13881 | 3.50076 | 16121 ft | 289 kts | 83° |
| 2026-05-04 20:01 | 52.14106 | 3.53257 | 15713 ft | 283 kts | 83° |
| 2026-05-04 20:01 | 52.14325 | 3.56391 | 15314 ft | 280 kts | 83° |
| 2026-05-04 20:01 | 52.14543 | 3.59551 | 14912 ft | 282 kts | 82° |
| 2026-05-04 20:02 | 52.14761 | 3.62713 | 14506 ft | 284 kts | 82° |
| 2026-05-04 20:02 | 52.14983 | 3.65940 | 14090 ft | 285 kts | 83° |
| 2026-05-04 20:02 | 52.15207 | 3.69207 | 13688 ft | 297 kts | 83° |
| 2026-05-04 20:02 | 52.15437 | 3.72635 | 13248 ft | 314 kts | 83° |
| 2026-05-04 20:03 | 52.15682 | 3.76274 | 12781 ft | 327 kts | 83° |
| 2026-05-04 20:03 | 52.15927 | 3.79928 | 12282 ft | 322 kts | 83° |
| 2026-05-04 20:03 | 52.16169 | 3.83475 | 11833 ft | 311 kts | 83° |
| 2026-05-04 20:03 | 52.16401 | 3.86883 | 11396 ft | 301 kts | 83° |
| 2026-05-04 20:04 | 52.16626 | 3.90230 | 10968 ft | 293 kts | 83° |
| 2026-05-04 20:04 | 52.16844 | 3.93473 | 10544 ft | 286 kts | 83° |
| 2026-05-04 20:04 | 52.17055 | 3.96631 | 10140 ft | 280 kts | 83° |
| 2026-05-04 20:04 | 52.17264 | 3.99773 | 9751 ft | 278 kts | 83° |
| 2026-05-04 20:05 | 52.17467 | 4.02867 | 9354 ft | 278 kts | 83° |
| 2026-05-04 20:05 | 52.17672 | 4.06002 | 8946 ft | 278 kts | 83° |
| 2026-05-04 20:05 | 52.17874 | 4.09101 | 8553 ft | 277 kts | 83° |
| 2026-05-04 20:05 | 52.18076 | 4.12213 | 8153 ft | 274 kts | 83° |
| 2026-05-04 20:06 | 52.18272 | 4.15227 | 7768 ft | 266 kts | 82° |
| 2026-05-04 20:06 | 52.18465 | 4.18185 | 7374 ft | 256 kts | 82° |
| 2026-05-04 20:06 | 52.18647 | 4.20982 | 7023 ft | 245 kts | 82° |
| 2026-05-04 20:06 | 52.18823 | 4.23699 | 6670 ft | 236 kts | 82° |
| 2026-05-04 20:07 | 52.18990 | 4.26293 | 6339 ft | 228 kts | 82° |
| 2026-05-04 20:07 | 52.19156 | 4.28939 | 6020 ft | 245 kts | 82° |
| 2026-05-04 20:07 | 52.19330 | 4.31754 | 5646 ft | 247 kts | 82° |
| 2026-05-04 20:07 | 52.19504 | 4.34469 | 5282 ft | 237 kts | 82° |
| 2026-05-04 20:08 | 52.19669 | 4.37061 | 4956 ft | 226 kts | 82° |
| 2026-05-04 20:08 | 52.19825 | 4.39557 | 4637 ft | 217 kts | 82° |
| 2026-05-04 20:08 | 52.19970 | 4.41945 | 4280 ft | 211 kts | 82° |
| 2026-05-04 20:08 | 52.20114 | 4.44336 | 3821 ft | 210 kts | 82° |
| 2026-05-04 20:09 | 52.20257 | 4.46716 | 3446 ft | 211 kts | 82° |
| 2026-05-04 20:09 | 52.20394 | 4.49060 | 3238 ft | 214 kts | 82° |
| 2026-05-04 20:09 | 52.20559 | 4.51517 | 3095 ft | 218 kts | 76° |
| 2026-05-04 20:09 | 52.21228 | 4.53615 | 2862 ft | 203 kts | 52° |
| 2026-05-04 20:10 | 52.21965 | 4.55483 | 2606 ft | 191 kts | 60° |
| 2026-05-04 20:10 | 52.22572 | 4.57247 | 2420 ft | 166 kts | 57° |
| 2026-05-04 20:10 | 52.23159 | 4.58770 | 2160 ft | 153 kts | 57° |
| 2026-05-04 20:10 | 52.23546 | 4.60369 | 1541 ft | 163 kts | 79° |
| 2026-05-04 20:11 | 52.23929 | 4.61944 | 1636 ft | 143 kts | 56° |
| 2026-05-04 20:11 | 52.24526 | 4.63188 | 1555 ft | 135 kts | 49° |
| 2026-05-04 20:11 | 52.25130 | 4.64328 | 1344 ft | 133 kts | 49° |
| 2026-05-04 20:11 | 52.25677 | 4.65535 | 1087 ft | 129 kts | 52° |
| 2026-05-04 20:12 | 52.26175 | 4.66752 | 992 ft | 131 kts | 54° |
| 2026-05-04 20:12 | 52.26686 | 4.68048 | 863 ft | 135 kts | 55° |
| 2026-05-04 20:12 | 52.27191 | 4.69308 | 658 ft | 132 kts | 58° |
| 2026-05-04 20:12 | 52.27678 | 4.70564 | 490 ft | 131 kts | 54° |
| 2026-05-04 20:13 | 52.28168 | 4.71806 | 299 ft | 130 kts | 58° |
| 2026-05-04 20:13 | 52.28661 | 4.73083 | 138 ft | 132 kts | 54° |
| 2026-05-04 20:13 | 52.29160 | 4.74370 | 10 ft | 132 kts | 59° |
| 2026-05-04 20:13 | 52.29590 | 4.75490 | -2 ft | 89 kts | 58° |
| 2026-05-04 20:14 | 52.29841 | 4.76147 | -2 ft | 54 kts | 57° |
| 2026-05-04 20:14 | 52.30018 | 4.76520 | -2 ft | 29 kts | 34° |
| 2026-05-04 20:14 | 52.30170 | 4.76661 | -2 ft | 20 kts | 28° |
| 2026-05-04 20:14 | 52.30270 | 4.76750 | -2 ft | 12 kts | 26° |
| 2026-05-04 20:15 | 52.30318 | 4.76840 | -2 ft | 13 kts | 60° |
| 2026-05-04 20:15 | 52.30374 | 4.76990 | -2 ft | 14 kts | 58° |
| 2026-05-04 20:15 | 52.30423 | 4.77114 | -2 ft | 11 kts | 57° |
| 2026-05-04 20:15 | 52.30460 | 4.77210 | -2 ft | 8 kts | 59° |
| 2026-05-04 20:16 | 52.30492 | 4.77293 | -2 ft | 8 kts | 57° |
| 2026-05-04 20:16 | 52.30528 | 4.77347 | -2 ft | 6 kts | 9° |
| 2026-05-04 20:16 | 52.30565 | 4.77321 | -2 ft | 5 kts | 328° |
| 2026-05-04 20:16 | 52.30595 | 4.77291 | -2 ft | 4 kts | 328° |
| 2026-05-04 20:17 | 52.30620 | 4.77265 | -2 ft | 4 kts | 328° |
| 2026-05-04 20:17 | 52.30647 | 4.77235 | -2 ft | 3 kts | 312° |
| 2026-05-04 20:17 | 52.30650 | 4.77193 | -2 ft | 2 kts | 261° |
| 2026-05-04 20:17 | 52.30651 | 4.77164 | -2 ft | 2 kts | 296° |
| 2026-05-04 20:18 | 52.30673 | 4.77153 | -2 ft | 4 kts | 0° |
| 2026-05-04 20:18 | 52.30693 | 4.77154 | -2 ft | 0 kts | 4° |
| 2026-05-04 20:18 | 52.30695 | 4.77154 | -2 ft | 0 kts | 5° |
| 2026-05-04 20:18 | 52.30700 | 4.77154 | -2 ft | 2 kts | 4° |
| 2026-05-04 20:19 | 52.30715 | 4.77156 | -2 ft | 0 kts | 4° |